createdAt,value
2022-08-19T00:01:03.809Z,56.00
2022-08-19T00:03:34.180Z,56.07
2022-08-19T00:06:05.700Z,56.03
2022-08-19T00:08:38.453Z,56.42
2022-08-19T00:11:18.701Z,55.92
2022-08-19T00:13:57.673Z,56.58
2022-08-19T00:16:29.618Z,57.00
2022-08-19T00:19:00.222Z,56.92
2022-08-19T00:21:32.738Z,57.53
2022-08-19T00:24:03.209Z,57.75
2022-08-19T00:26:41.755Z,57.82
2022-08-19T00:29:13.903Z,57.32
2022-08-19T00:31:45.664Z,57.87
2022-08-19T00:34:17.053Z,58.07
2022-08-19T00:36:47.527Z,58.35
2022-08-19T00:39:19.670Z,58.49
2022-08-19T00:41:55.182Z,58.83
2022-08-19T00:44:29.402Z,58.42
2022-08-19T00:47:02.879Z,59.16
2022-08-19T00:49:38.829Z,58.34
2022-08-19T00:52:15.401Z,58.80
2022-08-19T00:54:53.058Z,60.20
2022-08-19T00:57:33.056Z,60.11
2022-08-19T01:00:06.311Z,60.49
2022-08-19T01:02:39.337Z,60.46
2022-08-19T01:05:17.414Z,59.99
2022-08-19T01:07:49.127Z,60.39
2022-08-19T01:10:23.840Z,60.22
2022-08-19T01:13:01.970Z,60.87
2022-08-19T01:15:40.038Z,61.27
2022-08-19T01:18:13.692Z,61.12
2022-08-19T01:20:45.471Z,61.24
2022-08-19T01:23:19.661Z,61.72
2022-08-19T01:25:53.332Z,62.15
2022-08-19T01:28:40.078Z,62.36
2022-08-19T01:31:27.178Z,62.49
2022-08-19T01:33:59.989Z,62.47
2022-08-19T01:36:37.526Z,62.98
2022-08-19T01:39:17.386Z,63.37
2022-08-19T01:41:47.716Z,63.01
2022-08-19T01:44:21.373Z,63.59
2022-08-19T01:46:52.731Z,64.60
2022-08-19T01:49:28.328Z,65.89
2022-08-19T01:51:59.989Z,65.45
2022-08-19T01:54:34.513Z,65.75
2022-08-19T01:57:09.633Z,67.19
2022-08-19T01:59:50.779Z,67.14
2022-08-19T02:02:21.121Z,65.98
2022-08-19T02:04:52.027Z,67.11
2022-08-19T02:07:25.230Z,69.27
2022-08-19T02:09:59.392Z,69.53
2022-08-19T02:12:48.013Z,69.81
2022-08-19T02:15:20.281Z,72.45
2022-08-19T02:17:52.435Z,79.10
2022-08-19T02:20:26.143Z,77.35
2022-08-19T02:22:57.433Z,78.28
2022-08-19T02:25:30.122Z,78.24
2022-08-19T02:28:02.307Z,77.66
2022-08-19T02:30:33.366Z,78.44
2022-08-19T02:33:03.589Z,79.52
2022-08-19T02:35:33.705Z,78.96
2022-08-19T02:38:16.539Z,80.52
2022-08-19T02:40:59.262Z,81.03
2022-08-19T02:43:33.955Z,82.94
2022-08-19T02:46:05.775Z,82.22
2022-08-19T02:48:44.722Z,81.01
2022-08-19T02:51:23.310Z,78.74
2022-08-19T02:53:55.373Z,78.05
2022-08-19T02:56:28.702Z,79.53
2022-08-19T02:58:59.819Z,82.87
2022-08-19T03:01:32.239Z,83.65
2022-08-19T03:04:07.999Z,82.63
2022-08-19T03:06:41.876Z,84.32
2022-08-19T03:09:13.872Z,84.05
2022-08-19T03:11:46.799Z,83.18
2022-08-19T03:14:19.232Z,82.03
2022-08-19T03:16:52.446Z,82.97
2022-08-19T03:19:24.461Z,82.59
2022-08-19T03:21:58.057Z,82.63
2022-08-19T03:24:29.603Z,83.53
2022-08-19T03:27:04.993Z,82.56
2022-08-19T03:29:43.332Z,84.96
2022-08-19T03:32:31.708Z,85.74
2022-08-19T03:35:03.657Z,84.31
2022-08-19T03:37:42.199Z,88.75
2022-08-19T03:40:16.386Z,84.96
2022-08-19T03:42:51.112Z,84.79
2022-08-19T03:45:22.508Z,85.13
2022-08-19T03:47:53.941Z,85.15
2022-08-19T03:50:27.564Z,85.33
2022-08-19T03:53:01.032Z,86.12
2022-08-19T03:55:30.778Z,85.24
2022-08-19T03:58:07.713Z,84.94
2022-08-19T04:00:38.088Z,84.53
2022-08-19T04:03:09.370Z,84.88
2022-08-19T04:05:40.059Z,85.99
2022-08-19T04:08:13.867Z,85.91
2022-08-19T04:10:45.149Z,86.41
2022-08-19T04:13:21.531Z,86.57
2022-08-19T04:15:52.305Z,85.21
2022-08-19T04:18:23.064Z,86.22
2022-08-19T04:20:54.102Z,86.58
2022-08-19T04:23:25.013Z,87.16
2022-08-19T04:25:59.197Z,87.11
2022-08-19T04:28:37.920Z,87.71
2022-08-19T04:31:09.215Z,86.86
2022-08-19T04:33:40.036Z,86.94
2022-08-19T04:36:12.254Z,87.93
2022-08-19T04:38:42.399Z,86.62
2022-08-19T04:41:24.826Z,86.51
2022-08-19T04:44:04.158Z,86.17
2022-08-19T04:46:40.335Z,88.30
2022-08-19T04:49:23.739Z,87.74
2022-08-19T04:51:59.986Z,86.96
2022-08-19T04:54:38.677Z,86.40
2022-08-19T04:57:12.189Z,87.17
2022-08-19T04:59:52.800Z,85.27
2022-08-19T05:02:26.327Z,86.30
2022-08-19T05:05:03.481Z,84.83
2022-08-19T05:07:34.090Z,84.82
2022-08-19T05:10:04.321Z,83.78
2022-08-19T05:12:38.344Z,84.67
2022-08-19T05:15:13.836Z,83.46
2022-08-19T05:18:06.441Z,83.72
2022-08-19T05:20:49.444Z,82.90
2022-08-19T05:23:22.742Z,81.85
2022-08-19T05:25:54.361Z,82.67
2022-08-19T05:28:27.525Z,81.26
2022-08-19T05:31:03.953Z,81.15
2022-08-19T05:33:35.603Z,81.34
2022-08-19T05:36:08.435Z,80.79
2022-08-19T05:38:41.731Z,81.12
2022-08-19T05:41:12.609Z,79.85
2022-08-19T05:43:42.960Z,78.17
2022-08-19T05:46:28.076Z,77.78
2022-08-19T05:49:02.628Z,77.20
2022-08-19T05:51:38.360Z,78.01
2022-08-19T05:54:09.903Z,76.58
2022-08-19T05:56:40.397Z,74.96
2022-08-19T05:59:13.083Z,76.21
2022-08-19T06:01:51.735Z,75.43
2022-08-19T06:04:27.708Z,73.72
2022-08-19T06:07:12.075Z,73.78
2022-08-19T06:09:43.598Z,72.20
2022-08-19T06:12:31.743Z,71.20
2022-08-19T06:15:02.486Z,70.72
2022-08-19T06:17:36.281Z,70.13
2022-08-19T06:20:08.368Z,70.13
2022-08-19T06:22:41.905Z,69.17
2022-08-19T06:25:13.378Z,68.75
2022-08-19T06:28:11.508Z,67.43
2022-08-19T06:30:36.426Z,65.27
2022-08-19T06:33:10.843Z,65.89
2022-08-19T06:38:36.318Z,64.40
2022-08-19T06:41:09.343Z,64.72
2022-08-19T06:43:42.254Z,63.64
2022-08-19T06:46:16.686Z,61.14
2022-08-19T06:48:50.531Z,60.79
2022-08-19T06:51:22.778Z,61.97
2022-08-19T06:53:55.671Z,58.41
2022-08-19T06:56:32.228Z,57.80
2022-08-19T06:59:03.788Z,58.06
2022-08-19T07:01:41.755Z,55.80
2022-08-19T07:04:27.455Z,55.38
2022-08-19T07:07:19.557Z,56.07
2022-08-19T07:10:00.886Z,52.37
2022-08-19T07:12:38.168Z,54.00
2022-08-19T07:15:12.469Z,51.20
2022-08-19T07:17:44.991Z,51.33
2022-08-19T07:20:21.288Z,52.94
2022-08-19T07:22:52.416Z,51.27
2022-08-19T07:25:32.174Z,51.02
2022-08-19T07:28:04.831Z,49.51
2022-08-19T07:30:38.295Z,50.77
2022-08-19T07:33:09.892Z,49.21
2022-08-19T07:35:44.941Z,51.06
2022-08-19T07:38:15.978Z,46.40
2022-08-19T07:40:47.242Z,47.51
2022-08-19T07:43:19.422Z,48.49
2022-08-19T07:45:51.495Z,47.70
2022-08-19T07:48:26.098Z,48.08
2022-08-19T07:51:03.481Z,49.66
2022-08-19T07:53:39.678Z,48.47
2022-08-19T07:56:11.367Z,49.58
2022-08-19T07:58:45.694Z,47.98
2022-08-19T08:01:20.444Z,47.27
2022-08-19T08:04:05.682Z,45.65
2022-08-19T08:06:53.867Z,46.86
2022-08-19T08:09:27.000Z,44.56
2022-08-19T08:12:05.097Z,44.71
2022-08-19T08:14:44.130Z,43.54
2022-08-19T08:17:16.353Z,41.69
2022-08-19T08:20:04.125Z,43.18
2022-08-19T08:22:52.863Z,45.45
2022-08-19T08:25:32.484Z,41.95
2022-08-19T08:28:03.198Z,44.90
2022-08-19T08:30:36.990Z,42.24
2022-08-19T08:33:08.582Z,41.03
2022-08-19T08:35:40.107Z,39.72
2022-08-19T08:38:14.353Z,39.49
2022-08-19T08:40:49.798Z,39.73
2022-08-19T08:43:32.423Z,39.01
2022-08-19T08:46:07.762Z,42.19
2022-08-19T08:48:52.782Z,39.74
2022-08-19T08:51:30.881Z,39.75
2022-08-19T08:54:11.660Z,37.92
2022-08-19T08:56:42.700Z,39.74
2022-08-19T08:59:23.040Z,37.89
2022-08-19T09:01:53.210Z,38.18
2022-08-19T09:04:24.802Z,36.63
2022-08-19T09:07:18.255Z,35.88
2022-08-19T09:10:11.208Z,36.49
2022-08-19T09:12:51.155Z,37.67
2022-08-19T09:15:36.632Z,36.58
2022-08-19T09:18:08.458Z,36.91
2022-08-19T09:20:50.649Z,35.34
2022-08-19T09:23:26.800Z,37.06
2022-08-19T09:26:01.317Z,35.58
2022-08-19T09:28:34.075Z,34.30
2022-08-19T09:31:04.093Z,33.68
2022-08-19T09:33:35.070Z,36.39
2022-08-19T09:36:31.172Z,34.01
2022-08-19T09:39:16.028Z,32.88
2022-08-19T09:41:51.060Z,34.52
2022-08-19T09:44:23.497Z,33.08
2022-08-19T09:46:54.244Z,32.09
2022-08-19T09:49:25.318Z,35.08
2022-08-19T09:51:57.360Z,32.58
2022-08-19T09:54:32.451Z,32.93
2022-08-19T09:57:10.900Z,34.24
2022-08-19T09:59:49.039Z,33.87
2022-08-19T10:02:22.050Z,32.86
2022-08-19T10:05:05.847Z,32.73
2022-08-19T10:07:36.775Z,31.44
2022-08-19T10:10:07.894Z,30.46
2022-08-19T10:12:43.258Z,28.60
2022-08-19T10:15:29.206Z,30.04
2022-08-19T10:18:00.917Z,29.59
2022-08-19T10:20:31.363Z,29.46
2022-08-19T10:23:06.549Z,33.06
2022-08-19T10:25:38.667Z,31.96
2022-08-19T10:28:19.173Z,30.14
2022-08-19T10:30:56.861Z,29.24
2022-08-19T10:33:38.875Z,30.66
2022-08-19T10:36:24.090Z,28.55
2022-08-19T10:38:58.420Z,28.78
2022-08-19T10:41:31.319Z,30.24
2022-08-19T10:44:11.571Z,30.60
2022-08-19T10:46:48.727Z,30.46
2022-08-19T10:49:24.019Z,27.87
2022-08-19T10:52:10.209Z,30.95
2022-08-19T10:54:54.616Z,28.93
2022-08-19T10:57:45.996Z,29.82
2022-08-19T11:00:27.246Z,27.56
2022-08-19T11:02:58.327Z,28.19
2022-08-19T11:05:29.659Z,28.75
2022-08-19T11:08:22.578Z,27.32
2022-08-19T11:11:01.690Z,28.43
2022-08-19T11:13:33.539Z,29.51
2022-08-19T11:16:09.276Z,29.33
2022-08-19T11:18:43.884Z,28.14
2022-08-19T11:21:21.286Z,29.30
2022-08-19T11:23:55.416Z,28.41
2022-08-19T11:26:28.317Z,28.53
2022-08-19T11:29:00.747Z,27.13
2022-08-19T11:31:36.493Z,27.33
2022-08-19T11:34:09.510Z,27.75
2022-08-19T11:36:43.649Z,29.28
2022-08-19T11:39:16.575Z,29.41
2022-08-19T11:41:48.032Z,28.47
2022-08-19T11:44:18.455Z,29.44
2022-08-19T11:46:56.067Z,28.91
2022-08-19T11:49:27.491Z,30.03
2022-08-19T11:51:59.459Z,27.33
2022-08-19T11:54:29.708Z,26.71
2022-08-19T11:57:02.410Z,29.51
2022-08-19T11:59:33.484Z,29.66
2022-08-19T12:02:06.326Z,30.89
2022-08-19T12:04:38.914Z,30.35
2022-08-19T12:07:09.075Z,28.63
2022-08-19T12:09:42.862Z,28.31
2022-08-19T12:12:14.425Z,27.03
2022-08-19T12:14:47.614Z,27.87
2022-08-19T12:17:23.034Z,29.33
2022-08-19T12:19:55.818Z,29.51
2022-08-19T12:22:26.811Z,30.08
2022-08-19T12:24:57.685Z,29.59
2022-08-19T12:27:40.405Z,30.57
2022-08-19T12:30:17.164Z,30.69
2022-08-19T12:32:53.293Z,29.48
2022-08-19T12:35:23.874Z,30.20
2022-08-19T12:37:59.628Z,31.64
2022-08-19T12:40:32.670Z,33.34
2022-08-19T12:43:03.332Z,34.76
2022-08-19T12:45:39.745Z,35.34
2022-08-19T12:48:33.401Z,35.77
2022-08-19T12:51:03.928Z,34.44
2022-08-19T12:53:34.596Z,33.81
2022-08-19T12:56:11.507Z,35.53
2022-08-19T12:58:49.047Z,35.80
2022-08-19T13:01:23.853Z,36.51
2022-08-19T13:04:01.468Z,37.00
2022-08-19T13:06:32.483Z,35.42
2022-08-19T13:09:02.645Z,35.97
2022-08-19T13:11:34.260Z,35.58
2022-08-19T13:14:09.946Z,32.82
2022-08-19T13:16:41.495Z,33.57
2022-08-19T13:19:16.566Z,32.86
2022-08-19T13:21:48.989Z,32.27
2022-08-19T13:24:27.718Z,32.67
2022-08-19T13:27:06.114Z,31.58
2022-08-19T13:29:48.695Z,31.71
2022-08-19T13:32:31.258Z,31.82
2022-08-19T13:35:05.067Z,31.68
2022-08-19T13:37:45.909Z,32.20
2022-08-19T13:40:22.158Z,32.86
2022-08-19T13:42:57.405Z,33.87
2022-08-19T13:45:30.846Z,32.89
2022-08-19T13:48:02.003Z,33.67
2022-08-19T13:50:38.270Z,34.47
2022-08-19T13:53:09.348Z,34.98
2022-08-19T13:55:41.508Z,36.77
2022-08-19T13:58:13.653Z,36.83
2022-08-19T14:00:51.486Z,36.36
2022-08-19T14:03:21.789Z,35.09
2022-08-19T14:06:12.297Z,35.55
2022-08-19T14:08:46.200Z,33.45
2022-08-19T14:11:17.372Z,34.02
2022-08-19T14:13:47.536Z,33.72
2022-08-19T14:16:18.407Z,31.45
2022-08-19T14:18:49.496Z,32.04
2022-08-19T14:21:27.994Z,30.71
2022-08-19T14:23:59.919Z,31.56
2022-08-19T14:26:30.286Z,31.27
2022-08-19T14:29:04.943Z,31.37
2022-08-19T14:31:35.091Z,31.37
2022-08-19T14:34:06.395Z,32.39
2022-08-19T14:36:47.105Z,32.42
2022-08-19T14:39:20.403Z,32.11
2022-08-19T14:41:50.656Z,32.05
2022-08-19T14:44:21.520Z,32.19
2022-08-19T14:46:51.911Z,32.49
2022-08-19T14:49:34.778Z,33.18
2022-08-19T14:52:16.406Z,32.84
2022-08-19T14:54:49.571Z,32.18
2022-08-19T14:57:21.208Z,32.59
2022-08-19T14:59:51.380Z,33.16
2022-08-19T15:02:35.014Z,33.88
2022-08-19T15:05:05.694Z,34.16
2022-08-19T15:07:39.076Z,35.27
2022-08-19T15:10:19.777Z,36.65
2022-08-19T15:12:51.817Z,37.33
2022-08-19T15:15:30.951Z,38.21
2022-08-19T15:18:05.035Z,38.29
2022-08-19T15:20:35.484Z,38.80
2022-08-19T15:23:11.801Z,39.94
2022-08-19T15:25:42.579Z,40.04
2022-08-19T15:28:13.674Z,40.40
2022-08-19T15:30:45.168Z,40.56
2022-08-19T15:33:18.515Z,41.95
2022-08-19T15:35:51.741Z,42.09
2022-08-19T15:38:27.386Z,42.55
2022-08-19T15:41:19.801Z,42.90
2022-08-19T15:43:52.527Z,42.73
2022-08-19T15:46:25.134Z,44.50
2022-08-19T15:48:59.706Z,44.76
2022-08-19T15:51:32.589Z,45.46
2022-08-19T15:54:09.977Z,45.89
2022-08-19T15:56:58.342Z,45.89
2022-08-19T15:59:43.702Z,45.93
2022-08-19T16:02:32.997Z,46.62
2022-08-19T16:05:18.761Z,47.01
2022-08-19T16:07:51.502Z,46.98
2022-08-19T16:10:27.349Z,46.90
2022-08-19T16:12:59.274Z,48.19
2022-08-19T16:15:33.966Z,47.97
2022-08-19T16:18:05.315Z,47.77
2022-08-19T16:20:36.618Z,48.38
2022-08-19T16:23:07.368Z,50.58
2022-08-19T16:25:40.184Z,54.16
2022-08-19T16:28:12.302Z,55.52
2022-08-19T16:30:48.663Z,56.33
2022-08-19T16:33:23.235Z,55.50
2022-08-19T16:36:00.154Z,56.18
2022-08-19T16:38:38.111Z,55.87
2022-08-19T16:41:11.838Z,56.39
2022-08-19T16:43:46.167Z,57.57
2022-08-19T16:46:19.568Z,59.08
2022-08-19T16:48:55.403Z,59.82
2022-08-19T16:51:28.394Z,60.12
2022-08-19T16:53:58.994Z,60.10
2022-08-19T16:56:34.620Z,60.32
2022-08-19T16:59:04.966Z,61.07
2022-08-19T17:01:35.417Z,62.46
2022-08-19T17:04:05.879Z,65.38
2022-08-19T17:06:38.317Z,67.29
2022-08-19T17:09:10.473Z,68.27
2022-08-19T17:11:43.247Z,68.43
2022-08-19T17:14:13.779Z,67.34
2022-08-19T17:16:45.355Z,69.46
2022-08-19T17:19:15.544Z,70.21
2022-08-19T17:21:46.681Z,72.62
2022-08-19T17:24:17.458Z,72.99
2022-08-19T17:26:52.372Z,73.35
2022-08-19T17:29:23.477Z,72.43
2022-08-19T17:31:56.128Z,72.64
2022-08-19T17:34:26.562Z,72.53
2022-08-19T17:36:59.586Z,73.89
2022-08-19T17:39:45.094Z,71.75
2022-08-19T17:42:17.999Z,70.20
2022-08-19T17:44:50.851Z,78.43
2022-08-19T17:47:21.311Z,90.30
2022-08-19T17:49:52.126Z,100.00
2022-08-19T17:52:23.767Z,97.91
2022-08-19T17:54:54.837Z,100.00
2022-08-19T17:57:29.016Z,99.89
2022-08-19T17:59:59.297Z,100.00
2022-08-19T18:02:29.961Z,100.00
2022-08-19T18:05:07.923Z,100.00
2022-08-19T18:07:39.185Z,100.00
2022-08-19T18:10:18.001Z,100.00
2022-08-19T18:12:50.625Z,100.00
2022-08-19T18:15:23.057Z,100.00
2022-08-19T18:17:56.203Z,100.00
2022-08-19T18:20:26.587Z,100.00
2022-08-19T18:22:59.463Z,100.00
2022-08-19T18:25:50.532Z,100.00
2022-08-19T18:28:24.633Z,100.00
2022-08-19T18:30:58.628Z,100.00
2022-08-19T18:33:30.988Z,100.00
2022-08-19T18:36:04.345Z,100.00
2022-08-19T18:38:54.738Z,100.00
2022-08-19T18:41:41.457Z,100.00
2022-08-19T18:44:29.082Z,100.00
2022-08-19T18:47:12.377Z,100.00
2022-08-19T18:49:46.290Z,100.00
2022-08-19T18:52:16.504Z,100.00
2022-08-19T18:54:48.898Z,100.00
2022-08-19T18:57:24.965Z,100.00
2022-08-19T19:00:02.968Z,100.00
2022-08-19T19:02:41.431Z,100.00
2022-08-19T19:05:13.950Z,100.00
2022-08-19T19:07:44.881Z,100.00
2022-08-19T19:10:15.030Z,100.00
2022-08-19T19:12:48.300Z,100.00
2022-08-19T19:15:26.538Z,100.00
2022-08-19T19:17:57.008Z,100.00
2022-08-19T19:20:35.289Z,100.00
2022-08-19T19:23:10.118Z,100.00
2022-08-19T19:25:50.355Z,100.00
2022-08-19T19:28:29.009Z,100.00
2022-08-19T19:31:02.155Z,100.00
2022-08-19T19:33:32.374Z,100.00
2022-08-19T19:36:05.851Z,100.00
2022-08-19T19:38:37.773Z,100.00
2022-08-19T19:41:08.902Z,100.00
2022-08-19T19:43:41.008Z,100.00
2022-08-19T19:46:15.805Z,100.00
2022-08-19T19:48:46.436Z,100.00
2022-08-19T19:51:21.039Z,100.00
2022-08-19T19:53:53.898Z,100.00
2022-08-19T19:56:25.300Z,100.00
2022-08-19T19:58:55.806Z,100.00
2022-08-19T20:01:31.513Z,100.00
2022-08-19T20:04:12.422Z,100.00
2022-08-19T20:06:43.317Z,100.00
2022-08-19T20:09:18.907Z,100.00
2022-08-19T20:11:54.766Z,100.00
2022-08-19T20:14:29.226Z,100.00
2022-08-19T20:17:07.337Z,100.00
2022-08-19T20:19:37.866Z,100.00
2022-08-19T20:22:10.586Z,100.00
2022-08-19T20:24:42.792Z,100.00
2022-08-19T20:27:12.972Z,100.00
2022-08-19T20:29:44.582Z,100.00
2022-08-19T20:32:22.610Z,100.00
2022-08-19T20:34:52.816Z,100.00
2022-08-19T20:37:22.949Z,100.00
2022-08-19T20:40:03.306Z,100.00
2022-08-19T20:42:35.635Z,100.00
2022-08-19T20:45:09.913Z,100.00
2022-08-19T20:48:05.219Z,100.00
2022-08-19T20:50:37.984Z,100.00
2022-08-19T20:53:14.224Z,100.00
2022-08-19T20:55:47.516Z,100.00
2022-08-19T20:58:19.021Z,100.00
2022-08-19T21:00:50.231Z,100.00
2022-08-19T21:03:27.902Z,100.00
2022-08-19T21:05:58.987Z,100.00
2022-08-19T21:08:30.056Z,100.00
2022-08-19T21:11:00.561Z,100.00
2022-08-19T21:13:33.117Z,100.00
2022-08-19T21:16:05.515Z,100.00
2022-08-19T21:18:43.177Z,100.00
2022-08-19T21:21:13.649Z,100.00
2022-08-19T21:23:45.642Z,100.00
2022-08-19T21:26:16.551Z,100.00
2022-08-19T21:28:48.312Z,100.00
2022-08-19T21:31:19.185Z,100.00
2022-08-19T21:33:53.111Z,100.00
2022-08-19T21:36:25.667Z,100.00
2022-08-19T21:39:09.045Z,100.00
2022-08-19T21:41:43.463Z,100.00
2022-08-19T21:44:14.561Z,100.00
2022-08-19T21:46:45.715Z,100.00
2022-08-19T21:49:24.237Z,100.00
2022-08-19T21:51:55.399Z,100.00
2022-08-19T21:54:27.317Z,100.00
2022-08-19T21:57:10.535Z,100.00
2022-08-19T21:59:44.203Z,100.00
2022-08-19T22:02:20.478Z,100.00
2022-08-19T22:04:55.697Z,100.00
2022-08-19T22:07:26.629Z,100.00
2022-08-19T22:09:57.588Z,100.00
2022-08-19T22:12:31.627Z,100.00
2022-08-19T22:15:05.078Z,100.00
2022-08-19T22:17:35.234Z,100.00
2022-08-19T22:20:10.877Z,100.00
2022-08-19T22:22:48.877Z,100.00
2022-08-19T22:25:31.704Z,100.00
2022-08-19T22:28:02.700Z,100.00
2022-08-19T22:30:35.879Z,100.00
2022-08-19T22:33:11.763Z,100.00
2022-08-19T22:35:46.522Z,100.00
2022-08-19T22:38:24.382Z,100.00
2022-08-19T22:40:56.728Z,100.00
2022-08-19T22:43:31.765Z,100.00
2022-08-19T22:46:05.854Z,100.00
2022-08-19T22:48:47.200Z,100.00
2022-08-19T22:51:32.996Z,100.00
2022-08-19T22:54:04.053Z,100.00
2022-08-19T22:56:34.975Z,100.00
2022-08-19T22:59:08.735Z,100.00
2022-08-19T23:01:41.917Z,100.00
2022-08-19T23:04:12.364Z,100.00
2022-08-19T23:06:48.388Z,100.00
2022-08-19T23:09:18.715Z,100.00
2022-08-19T23:11:55.184Z,100.00
2022-08-19T23:14:28.219Z,100.00
2022-08-19T23:16:59.457Z,100.00
2022-08-19T23:19:29.930Z,100.00
2022-08-19T23:22:07.162Z,100.00
2022-08-19T23:24:37.623Z,100.00
2022-08-19T23:27:21.221Z,100.00
2022-08-19T23:30:05.981Z,100.00
2022-08-19T23:32:38.107Z,100.00
2022-08-19T23:35:09.161Z,100.00
2022-08-19T23:37:42.204Z,100.00
2022-08-19T23:40:15.237Z,100.00
2022-08-19T23:42:47.605Z,100.00
2022-08-19T23:45:25.549Z,100.00
2022-08-19T23:47:57.989Z,100.00
2022-08-19T23:50:29.973Z,100.00
2022-08-19T23:53:13.284Z,100.00
2022-08-19T23:55:45.395Z,100.00
2022-08-19T23:58:17.876Z,100.00
